createdAt,value
2018-03-16T00:00:33.272Z,2.7
2018-03-16T00:01:23.802Z,2.6
2018-03-16T00:02:13.593Z,2.6
2018-03-16T00:03:03.739Z,2.6
2018-03-16T00:03:54.288Z,2.6
2018-03-16T00:04:44.129Z,2.6
2018-03-16T00:05:34.403Z,2.6
2018-03-16T00:06:24.488Z,2.6
2018-03-16T00:07:14.232Z,2.6
2018-03-16T00:08:04.597Z,2.6
2018-03-16T00:08:54.372Z,2.6
2018-03-16T00:09:44.681Z,2.5
2018-03-16T00:10:34.773Z,2.5
2018-03-16T00:11:24.834Z,2.5
2018-03-16T00:12:14.598Z,2.4
2018-03-16T00:13:04.739Z,2.5
2018-03-16T00:13:54.142Z,2.5
2018-03-16T00:14:44.589Z,2.4
2018-03-16T00:15:35.139Z,2.4
2018-03-16T00:16:24.695Z,2.4
2018-03-16T00:17:15.241Z,2.4
2018-03-16T00:18:05.281Z,2.4
2018-03-16T00:18:55.081Z,2.4
2018-03-16T00:19:45.441Z,2.4
2018-03-16T00:20:35.484Z,2.4
2018-03-16T00:21:24.771Z,2.4
2018-03-16T00:22:15.623Z,2.4
2018-03-16T00:23:05.672Z,2.4
2018-03-16T00:23:55.443Z,2.4
2018-03-16T00:24:45.295Z,2.4
2018-03-16T00:25:35.568Z,2.4
2018-03-16T00:26:25.716Z,2.4
2018-03-16T00:27:15.693Z,2.4
2018-03-16T00:28:05.538Z,2.4
2018-03-16T00:28:56.124Z,2.4
2018-03-16T00:29:45.876Z,2.4
2018-03-16T00:30:35.721Z,2.4
2018-03-16T00:31:25.873Z,2.4
2018-03-16T00:32:16.312Z,2.4
2018-03-16T00:33:06.370Z,2.4
2018-03-16T00:33:56.452Z,2.4
2018-03-16T00:34:46.515Z,2.4
2018-03-16T00:35:36.557Z,2.4
2018-03-16T00:36:26.050Z,2.4
2018-03-16T00:37:16.674Z,2.4
2018-03-16T00:38:06.749Z,2.4
2018-03-16T00:38:56.524Z,2.4
2018-03-16T00:39:46.179Z,2.3
2018-03-16T00:40:36.647Z,2.3
2018-03-16T00:41:26.692Z,2.3
2018-03-16T00:42:16.738Z,2.3
2018-03-16T00:43:06.830Z,2.3
2018-03-16T00:43:56.597Z,2.3
2018-03-16T00:44:47.223Z,2.3
2018-03-16T00:45:37.009Z,2.3
2018-03-16T00:46:26.779Z,2.3
2018-03-16T00:47:17.404Z,2.3
2018-03-16T00:48:07.179Z,2.3
2018-03-16T00:48:56.959Z,2.3
2018-03-16T00:49:47.289Z,2.3
2018-03-16T00:50:37.356Z,2.3
2018-03-16T00:51:27.227Z,2.3
2018-03-16T00:52:17.273Z,2.3
2018-03-16T00:53:07.811Z,2.3
2018-03-16T00:53:57.592Z,2.3
2018-03-16T00:54:47.936Z,2.3
2018-03-16T00:55:37.717Z,2.3
2018-03-16T00:56:28.064Z,2.3
2018-03-16T00:57:17.838Z,2.3
2018-03-16T00:58:07.896Z,2.3
2018-03-16T00:58:57.971Z,2.3
2018-03-16T00:59:48.013Z,2.3
2018-03-16T01:00:37.786Z,2.3
2018-03-16T01:01:27.656Z,2.3
2018-03-16T01:02:18.204Z,2.3
2018-03-16T01:03:08.071Z,2.3
2018-03-16T01:03:58.115Z,2.3
2018-03-16T01:04:48.395Z,2.3
2018-03-16T01:05:38.148Z,2.3
2018-03-16T01:06:28.503Z,2.3
2018-03-16T01:07:18.574Z,2.3
2018-03-16T01:08:08.326Z,2.3
2018-03-16T01:08:58.390Z,2.3
2018-03-16T01:09:49.238Z,2.3
2018-03-16T01:10:38.782Z,2.3
2018-03-16T01:11:29.342Z,2.2
2018-03-16T01:12:18.731Z,2.2
2018-03-16T01:13:09.271Z,2.2
2018-03-16T01:13:59.322Z,2.2
2018-03-16T01:14:48.601Z,2.2
2018-03-16T01:15:39.160Z,2.2
2018-03-16T01:16:29.510Z,2.2
2018-03-16T01:17:19.165Z,2.1
2018-03-16T01:18:09.630Z,2.2
2018-03-16T01:18:59.130Z,2.2
2018-03-16T01:19:49.456Z,2.1
2018-03-16T01:20:39.318Z,2.1
2018-03-16T01:21:29.380Z,2.1
2018-03-16T01:22:19.632Z,2.1
2018-03-16T01:23:09.677Z,2.1
2018-03-16T01:23:59.461Z,2.1
2018-03-16T01:24:50.111Z,2.1
2018-03-16T01:25:39.302Z,2.1
2018-03-16T01:26:29.742Z,2.1
2018-03-16T01:27:19.995Z,2.1
2018-03-16T01:28:10.254Z,2.1
2018-03-16T01:29:00.299Z,2.1
2018-03-16T01:29:49.884Z,2.1
2018-03-16T01:30:40.332Z,2.1
2018-03-16T01:31:30.279Z,2.1
2018-03-16T01:32:20.628Z,2.1
2018-03-16T01:33:10.429Z,2
2018-03-16T01:34:00.479Z,2
2018-03-16T01:34:50.819Z,2
2018-03-16T01:35:40.396Z,2
2018-03-16T01:36:30.933Z,2
2018-03-16T01:37:21.191Z,2
2018-03-16T01:38:10.781Z,2
2018-03-16T01:39:01.599Z,2
2018-03-16T01:39:50.893Z,1.9
2018-03-16T01:40:41.236Z,1.9
2018-03-16T01:41:30.736Z,1.9
2018-03-16T01:42:21.450Z,1.9
2018-03-16T01:43:11.415Z,1.9
2018-03-16T01:44:01.489Z,1.9
2018-03-16T01:44:51.455Z,1.9
2018-03-16T01:45:41.334Z,1.9
2018-03-16T01:46:31.674Z,1.9
2018-03-16T01:47:21.908Z,1.9
2018-03-16T01:48:11.203Z,1.9
2018-03-16T01:49:01.533Z,1.9
2018-03-16T01:49:51.316Z,1.9
2018-03-16T01:50:41.958Z,1.9
2018-03-16T01:51:32.043Z,1.9
2018-03-16T01:52:22.591Z,1.9
2018-03-16T01:53:12.060Z,1.9
2018-03-16T01:54:01.829Z,1.9
2018-03-16T01:54:52.060Z,1.9
2018-03-16T01:55:42.236Z,2
2018-03-16T01:56:31.806Z,2
2018-03-16T01:57:22.432Z,1.9
2018-03-16T01:58:11.906Z,2
2018-03-16T01:59:02.770Z,1.9
2018-03-16T01:59:52.333Z,1.9
2018-03-16T02:00:42.400Z,1.9
2018-03-16T02:01:33.245Z,1.9
2018-03-16T02:02:22.505Z,2
2018-03-16T02:03:13.061Z,2
2018-03-16T02:04:02.900Z,2
2018-03-16T02:04:52.683Z,2
2018-03-16T02:05:43.045Z,2
2018-03-16T02:06:32.821Z,2
2018-03-16T02:07:23.080Z,2
2018-03-16T02:08:13.226Z,2
2018-03-16T02:09:02.990Z,2.1
2018-03-16T02:09:53.341Z,2.1
2018-03-16T02:10:43.104Z,2.1
2018-03-16T02:11:33.454Z,2.1
2018-03-16T02:12:23.243Z,2.1
2018-03-16T02:13:13.092Z,2.1
2018-03-16T02:14:03.572Z,2.1
2018-03-16T02:14:53.124Z,2.1
2018-03-16T02:15:43.757Z,2.1
2018-03-16T02:16:33.330Z,2.1
2018-03-16T02:17:23.786Z,2.1
2018-03-16T02:18:14.425Z,2.1
2018-03-16T02:19:03.713Z,2.1
2018-03-16T02:19:54.272Z,2.1
2018-03-16T02:20:44.324Z,2.1
2018-03-16T02:21:34.376Z,2.1
2018-03-16T02:22:24.436Z,2.1
2018-03-16T02:23:14.488Z,2.1
2018-03-16T02:24:04.556Z,2.1
2018-03-16T02:24:54.621Z,2.1
2018-03-16T02:25:44.974Z,2.1
2018-03-16T02:26:34.738Z,2.2
2018-03-16T02:27:24.211Z,2.2
2018-03-16T02:28:15.192Z,2.2
2018-03-16T02:29:04.719Z,2.2
2018-03-16T02:29:54.701Z,2.2
2018-03-16T02:30:44.744Z,2.2
2018-03-16T02:31:34.802Z,2.2
2018-03-16T02:32:25.162Z,2.3
2018-03-16T02:33:15.230Z,2.3
2018-03-16T02:34:04.798Z,2.3
2018-03-16T02:34:55.346Z,2.3
2018-03-16T02:35:44.916Z,2.3
2018-03-16T02:36:35.764Z,2.3
2018-03-16T02:37:25.038Z,2.3
2018-03-16T02:38:15.564Z,2.3
2018-03-16T02:39:05.440Z,2.3
2018-03-16T02:39:55.311Z,2.3
2018-03-16T02:40:46.060Z,2.3
2018-03-16T02:41:36.113Z,2.3
2018-03-16T02:42:25.878Z,2.3
2018-03-16T02:43:15.943Z,2.3
2018-03-16T02:44:05.515Z,2.3
2018-03-16T02:44:55.768Z,2.4
2018-03-16T02:45:46.132Z,2.4
2018-03-16T02:46:35.904Z,2.4
2018-03-16T02:47:25.845Z,2.4
2018-03-16T02:48:16.321Z,2.4
2018-03-16T02:49:05.878Z,2.4
2018-03-16T02:49:55.943Z,2.4
2018-03-16T02:50:46.778Z,2.4
2018-03-16T02:51:36.562Z,2.4
2018-03-16T02:52:26.615Z,2.4
2018-03-16T02:53:16.456Z,2.4
2018-03-16T02:54:06.732Z,2.4
2018-03-16T02:54:56.574Z,2.4
2018-03-16T02:55:46.445Z,2.4
2018-03-16T02:56:36.411Z,2.4
2018-03-16T02:57:26.470Z,2.4
2018-03-16T02:58:17.028Z,2.4
2018-03-16T02:59:07.076Z,2.4
2018-03-16T02:59:57.151Z,2.4
2018-03-16T03:00:46.633Z,2.4
2018-03-16T03:01:36.967Z,2.4
2018-03-16T03:02:26.735Z,2.4
2018-03-16T03:03:17.465Z,2.4
2018-03-16T03:04:07.441Z,2.4
2018-03-16T03:04:57.582Z,2.4
2018-03-16T03:05:47.276Z,2.4
2018-03-16T03:06:37.118Z,2.4
2018-03-16T03:07:27.671Z,2.4
2018-03-16T03:08:17.253Z,2.4
2018-03-16T03:09:07.300Z,2.4
2018-03-16T03:09:57.443Z,2.4
2018-03-16T03:10:47.421Z,2.4
2018-03-16T03:11:38.006Z,2.4
2018-03-16T03:12:27.748Z,2.4
2018-03-16T03:13:17.603Z,2.4
2018-03-16T03:14:08.146Z,2.5
2018-03-16T03:14:58.216Z,2.4
2018-03-16T03:15:48.276Z,2.4
2018-03-16T03:16:38.113Z,2.5
2018-03-16T03:17:28.393Z,2.4
2018-03-16T03:18:18.726Z,2.5
2018-03-16T03:19:08.506Z,2.5
2018-03-16T03:19:58.835Z,2.5
2018-03-16T03:20:48.638Z,2.5
2018-03-16T03:21:38.732Z,2.5
2018-03-16T03:22:28.753Z,2.5
2018-03-16T03:23:18.523Z,2.6
2018-03-16T03:24:09.148Z,2.5
2018-03-16T03:24:58.936Z,2.5
2018-03-16T03:25:49.313Z,2.6
2018-03-16T03:26:39.376Z,2.5
2018-03-16T03:27:29.376Z,2.6
2018-03-16T03:28:19.170Z,2.5
2018-03-16T03:29:09.494Z,2.6
2018-03-16T03:29:58.808Z,2.5
2018-03-16T03:30:49.385Z,2.5
2018-03-16T03:31:39.016Z,2.5
2018-03-16T03:32:29.195Z,2.6
2018-03-16T03:33:19.800Z,2.5
2018-03-16T03:34:09.882Z,2.5
2018-03-16T03:34:59.949Z,2.5
2018-03-16T03:35:49.706Z,2.5
2018-03-16T03:36:39.783Z,2.5
2018-03-16T03:37:29.822Z,2.5
2018-03-16T03:38:20.172Z,2.5
2018-03-16T03:39:09.945Z,2.5
2018-03-16T03:39:59.717Z,2.5
2018-03-16T03:40:49.757Z,2.5
2018-03-16T03:41:40.392Z,2.6
2018-03-16T03:42:30.167Z,2.5
2018-03-16T03:43:20.548Z,2.5
2018-03-16T03:44:10.576Z,2.6
2018-03-16T03:45:00.654Z,2.6
2018-03-16T03:45:50.707Z,2.5
2018-03-16T03:46:40.484Z,2.6
2018-03-16T03:47:30.817Z,2.6
2018-03-16T03:48:20.902Z,2.6
2018-03-16T03:49:10.384Z,2.6
2018-03-16T03:50:00.450Z,2.6
2018-03-16T03:50:51.072Z,2.6
2018-03-16T03:51:40.825Z,2.6
2018-03-16T03:52:30.313Z,2.6
2018-03-16T03:53:20.661Z,2.6
2018-03-16T03:54:11.313Z,2.6
2018-03-16T03:55:01.371Z,2.6
2018-03-16T03:55:51.403Z,2.6
2018-03-16T03:56:41.241Z,2.6
2018-03-16T03:57:31.542Z,2.7
2018-03-16T03:58:21.589Z,2.7
2018-03-16T03:59:11.657Z,2.6
2018-03-16T04:00:01.718Z,2.7
2018-03-16T04:00:51.821Z,2.7
2018-03-16T04:01:41.277Z,2.7
2018-03-16T04:02:31.342Z,2.7
2018-03-16T04:03:21.400Z,2.7
2018-03-16T04:04:11.461Z,2.7
2018-03-16T04:05:01.814Z,2.7
2018-03-16T04:05:51.962Z,2.7
2018-03-16T04:06:42.194Z,2.8
2018-03-16T04:07:31.790Z,2.8
2018-03-16T04:08:22.120Z,2.8
2018-03-16T04:09:11.605Z,2.8
2018-03-16T04:10:02.455Z,2.8
2018-03-16T04:10:52.475Z,2.8
2018-03-16T04:11:42.553Z,2.8
2018-03-16T04:12:32.092Z,2.8
2018-03-16T04:13:22.399Z,2.8
2018-03-16T04:14:12.755Z,2.8
2018-03-16T04:15:02.789Z,2.8
2018-03-16T04:15:52.607Z,2.8
2018-03-16T04:16:42.912Z,2.8
2018-03-16T04:17:32.707Z,2.8
2018-03-16T04:18:22.763Z,2.8
2018-03-16T04:19:13.095Z,2.9
2018-03-16T04:20:03.196Z,2.8
2018-03-16T04:20:52.447Z,2.9
2018-03-16T04:21:42.719Z,2.9
2018-03-16T04:22:32.853Z,2.9
2018-03-16T04:23:22.630Z,2.9
2018-03-16T04:24:12.967Z,2.9
2018-03-16T04:25:03.032Z,2.9
2018-03-16T04:25:53.086Z,2.9
2018-03-16T04:26:43.347Z,2.9
2018-03-16T04:27:33.027Z,2.9
2018-03-16T04:28:23.524Z,2.9
2018-03-16T04:29:13.247Z,2.9
2018-03-16T04:30:03.667Z,2.9
2018-03-16T04:30:53.413Z,2.9
2018-03-16T04:31:43.412Z,3
2018-03-16T04:32:33.378Z,2.9
2018-03-16T04:33:24.147Z,3
2018-03-16T04:34:13.313Z,3
2018-03-16T04:35:03.941Z,3
2018-03-16T04:35:54.019Z,3
2018-03-16T04:36:43.866Z,3.1
2018-03-16T04:37:33.854Z,3.1
2018-03-16T04:38:24.174Z,3.1
2018-03-16T04:39:13.759Z,3.1
2018-03-16T04:40:04.315Z,3.1
2018-03-16T04:40:54.638Z,3.1
2018-03-16T04:41:44.704Z,3.1
2018-03-16T04:42:34.195Z,3.1
2018-03-16T04:43:24.812Z,3.1
2018-03-16T04:44:14.322Z,3.1
2018-03-16T04:45:04.965Z,3.1
2018-03-16T04:45:54.534Z,3.1
2018-03-16T04:46:44.762Z,3.1
2018-03-16T04:47:34.863Z,3.1
2018-03-16T04:48:24.623Z,3.2
2018-03-16T04:49:14.764Z,3.2
2018-03-16T04:50:04.817Z,3.2
2018-03-16T04:50:55.349Z,3.2
2018-03-16T04:51:45.163Z,3.2
2018-03-16T04:52:35.209Z,3.2
2018-03-16T04:53:24.676Z,3.2
2018-03-16T04:54:15.034Z,3.3
2018-03-16T04:55:05.666Z,3.3
2018-03-16T04:55:55.426Z,3.3
2018-03-16T04:56:44.999Z,3.3
2018-03-16T04:57:35.564Z,3.3
2018-03-16T04:58:25.323Z,3.3
2018-03-16T04:59:15.088Z,3.3
2018-03-16T05:00:05.438Z,3.3
2018-03-16T05:00:55.498Z,3.3
2018-03-16T05:01:45.447Z,3.3
2018-03-16T05:02:35.923Z,3.4
2018-03-16T05:03:26.245Z,3.4
2018-03-16T05:04:15.853Z,3.4
2018-03-16T05:05:05.509Z,3.4
2018-03-16T05:05:56.410Z,3.4
2018-03-16T05:06:46.484Z,3.4
2018-03-16T05:07:36.263Z,3.4
2018-03-16T05:08:26.647Z,3.4
2018-03-16T05:09:16.207Z,3.5
2018-03-16T05:10:06.448Z,3.5
2018-03-16T05:10:56.022Z,3.5
2018-03-16T05:11:46.551Z,3.5
2018-03-16T05:12:36.132Z,3.5
2018-03-16T05:13:26.978Z,3.6
2018-03-16T05:14:16.540Z,3.6
2018-03-16T05:15:06.532Z,3.6
2018-03-16T05:15:56.257Z,3.6
2018-03-16T05:16:47.212Z,3.6
2018-03-16T05:17:37.257Z,3.6
2018-03-16T05:18:27.300Z,3.7
2018-03-16T05:19:16.892Z,3.6
2018-03-16T05:20:06.968Z,3.7
2018-03-16T05:20:57.583Z,3.7
2018-03-16T05:21:47.266Z,3.8
2018-03-16T05:22:37.344Z,3.8
2018-03-16T05:23:27.702Z,3.8
2018-03-16T05:24:17.446Z,3.8
2018-03-16T05:25:07.134Z,3.8
2018-03-16T05:25:57.376Z,3.8
2018-03-16T05:26:47.625Z,3.9
2018-03-16T05:27:37.982Z,3.9
2018-03-16T05:28:27.729Z,3.9
2018-03-16T05:29:17.692Z,3.9
2018-03-16T05:30:07.286Z,3.9
2018-03-16T05:30:57.834Z,3.9
2018-03-16T05:31:48.004Z,3.9
2018-03-16T05:32:38.028Z,4
2018-03-16T05:33:27.804Z,4
2018-03-16T05:34:18.173Z,4.1
2018-03-16T05:35:07.643Z,4.1
2018-03-16T05:35:58.288Z,4.1
2018-03-16T05:36:48.138Z,4.1
2018-03-16T05:37:38.419Z,4.1
2018-03-16T05:38:28.465Z,4.1
2018-03-16T05:39:18.220Z,4.2
2018-03-16T05:40:08.383Z,4.2
2018-03-16T05:40:58.343Z,4.3
2018-03-16T05:41:48.795Z,4.3
2018-03-16T05:42:39.021Z,4.3
2018-03-16T05:43:29.080Z,4.3
2018-03-16T05:44:19.137Z,4.3
2018-03-16T05:45:09.202Z,4.3
2018-03-16T05:45:59.286Z,4.4
2018-03-16T05:46:49.322Z,4.3
2018-03-16T05:47:39.372Z,4.4
2018-03-16T05:48:29.194Z,4.4
2018-03-16T05:49:19.490Z,4.4
2018-03-16T05:50:09.568Z,4.4
2018-03-16T05:50:59.619Z,4.4
2018-03-16T05:51:49.684Z,4.5
2018-03-16T05:52:39.472Z,4.5
2018-03-16T05:53:29.512Z,4.5
2018-03-16T05:54:19.602Z,4.6
2018-03-16T05:55:09.432Z,4.6
2018-03-16T05:55:59.984Z,4.6
2018-03-16T05:56:49.775Z,4.6
2018-03-16T05:57:39.532Z,4.6
2018-03-16T05:58:29.605Z,4.7
2018-03-16T05:59:19.927Z,4.7
2018-03-16T06:00:10.000Z,4.8
2018-03-16T06:00:59.854Z,4.8
2018-03-16T06:01:50.401Z,4.8
2018-03-16T06:02:40.457Z,4.8
2018-03-16T06:03:29.744Z,4.9
2018-03-16T06:04:19.994Z,4.9
2018-03-16T06:05:10.074Z,4.9
2018-03-16T06:06:00.402Z,4.9
2018-03-16T06:06:50.791Z,5
2018-03-16T06:07:40.843Z,5
2018-03-16T06:08:30.586Z,5.1
2018-03-16T06:09:20.696Z,5.1
2018-03-16T06:10:10.711Z,5.1
2018-03-16T06:11:00.564Z,5.1
2018-03-16T06:11:50.590Z,5.2
2018-03-16T06:12:40.608Z,5.2
2018-03-16T06:13:31.241Z,5.3
2018-03-16T06:14:21.010Z,5.3
2018-03-16T06:15:11.355Z,5.3
2018-03-16T06:16:00.679Z,5.4
2018-03-16T06:16:51.168Z,5.4
2018-03-16T06:17:41.537Z,5.4
2018-03-16T06:18:31.016Z,5.5
2018-03-16T06:19:21.155Z,5.6
2018-03-16T06:20:11.213Z,5.6
2018-03-16T06:21:01.195Z,5.7
2018-03-16T06:21:51.532Z,5.8
2018-03-16T06:22:41.387Z,5.8
2018-03-16T06:23:31.367Z,5.9
2018-03-16T06:24:22.004Z,5.9
2018-03-16T06:25:11.791Z,6.1
2018-03-16T06:26:02.107Z,6.2
2018-03-16T06:26:52.292Z,6.3
2018-03-16T06:27:41.458Z,6.5
2018-03-16T06:28:32.297Z,6.6
2018-03-16T06:29:21.769Z,6.8
2018-03-16T06:30:11.844Z,6.9
2018-03-16T06:31:01.875Z,7.1
2018-03-16T06:31:52.277Z,7.3
2018-03-16T06:32:41.800Z,7.4
2018-03-16T06:33:32.680Z,7.6
2018-03-16T06:34:22.729Z,7.8
2018-03-16T06:35:11.694Z,7.9
2018-03-16T06:36:02.244Z,8
2018-03-16T06:36:52.584Z,8.1
2018-03-16T06:37:42.675Z,8.3
2018-03-16T06:38:32.718Z,8.4
2018-03-16T06:39:23.152Z,8.6
2018-03-16T06:40:12.346Z,8.7
2018-03-16T06:41:02.794Z,8.8
2018-03-16T06:41:53.252Z,8.9
2018-03-16T06:42:42.822Z,9
2018-03-16T06:43:33.069Z,9.1
2018-03-16T06:44:23.401Z,9.3
2018-03-16T06:45:13.187Z,9.4
2018-03-16T06:46:02.963Z,9.5
2018-03-16T06:46:53.022Z,9.6
2018-03-16T06:47:43.644Z,9.8
2018-03-16T06:48:33.132Z,9.9
2018-03-16T06:49:23.474Z,10
2018-03-16T06:50:13.819Z,10.1
2018-03-16T06:51:03.590Z,10.2
2018-03-16T06:51:53.384Z,10.3
2018-03-16T06:52:43.425Z,10.4
2018-03-16T06:53:33.194Z,10.5
2018-03-16T06:54:23.834Z,10.6
2018-03-16T06:55:13.898Z,10.7
2018-03-16T06:56:03.647Z,10.8
2018-03-16T06:56:54.308Z,10.9
2018-03-16T06:57:43.885Z,10.9
2018-03-16T06:58:33.840Z,11
2018-03-16T06:59:24.495Z,11.1
2018-03-16T07:00:14.261Z,11.2
2018-03-16T07:01:04.115Z,11.3
2018-03-16T07:01:54.083Z,11.3
2018-03-16T07:02:44.130Z,11.4
2018-03-16T07:03:34.467Z,11.4
2018-03-16T07:04:24.543Z,11.4
2018-03-16T07:05:14.580Z,11.5
2018-03-16T07:06:04.672Z,11.6
2018-03-16T07:06:55.003Z,11.6
2018-03-16T07:07:44.388Z,11.6
2018-03-16T07:08:34.649Z,11.6
2018-03-16T07:09:25.197Z,11.6
2018-03-16T07:10:14.971Z,11.6
2018-03-16T07:11:04.619Z,11.6
2018-03-16T07:11:55.367Z,11.7
2018-03-16T07:12:44.842Z,11.7
2018-03-16T07:13:35.195Z,11.7
2018-03-16T07:14:24.973Z,11.7
2018-03-16T07:15:15.130Z,11.8
2018-03-16T07:16:05.085Z,11.8
2018-03-16T07:16:55.152Z,11.8
2018-03-16T07:17:45.196Z,11.8
2018-03-16T07:18:35.837Z,11.8
2018-03-16T07:19:25.612Z,11.8
2018-03-16T07:20:15.678Z,11.8
2018-03-16T07:21:05.748Z,11.9
2018-03-16T07:21:55.307Z,11.9
2018-03-16T07:22:45.659Z,11.9
2018-03-16T07:23:35.330Z,12
2018-03-16T07:24:25.774Z,12
2018-03-16T07:25:15.818Z,12.1
2018-03-16T07:26:06.091Z,12.1
2018-03-16T07:26:56.136Z,12.1
2018-03-16T07:27:45.915Z,12.1
2018-03-16T07:28:36.059Z,12.2
2018-03-16T07:29:26.331Z,12.2
2018-03-16T07:30:16.398Z,12.3
2018-03-16T07:31:06.532Z,12.3
2018-03-16T07:31:56.491Z,12.3
2018-03-16T07:32:46.638Z,12.4
2018-03-16T07:33:36.136Z,12.4
2018-03-16T07:34:26.106Z,12.4
2018-03-16T07:35:16.721Z,12.4
2018-03-16T07:36:07.079Z,12.5
2018-03-16T07:36:56.661Z,12.5
2018-03-16T07:37:46.924Z,12.5
2018-03-16T07:38:36.979Z,12.6
2018-03-16T07:39:27.038Z,12.6
2018-03-16T07:40:17.086Z,12.6
2018-03-16T07:41:07.438Z,12.7
2018-03-16T07:41:57.222Z,12.7
2018-03-16T07:42:47.590Z,12.7
2018-03-16T07:43:37.325Z,12.7
2018-03-16T07:44:26.804Z,12.8
2018-03-16T07:45:17.159Z,12.8
2018-03-16T07:46:07.777Z,12.8
2018-03-16T07:46:57.851Z,12.8
2018-03-16T07:47:47.340Z,12.9
2018-03-16T07:48:38.016Z,12.9
2018-03-16T07:49:28.039Z,12.9
2018-03-16T07:50:18.083Z,12.9
2018-03-16T07:51:07.270Z,12.9
2018-03-16T07:51:57.643Z,12.9
2018-03-16T07:52:47.210Z,12.9
2018-03-16T07:53:37.645Z,12.9
2018-03-16T07:54:27.532Z,12.8
2018-03-16T07:55:18.156Z,12.8
2018-03-16T07:56:08.238Z,12.8
2018-03-16T07:56:58.565Z,12.8
2018-03-16T07:57:48.350Z,12.8
2018-03-16T07:58:38.671Z,12.7
2018-03-16T07:59:28.736Z,12.7
2018-03-16T08:00:18.494Z,12.6
2018-03-16T08:01:08.978Z,12.6
2018-03-16T08:01:58.918Z,12.6
2018-03-16T08:02:48.403Z,12.5
2018-03-16T08:03:39.049Z,12.5
2018-03-16T08:04:29.079Z,12.5
2018-03-16T08:05:18.869Z,12.5
2018-03-16T08:06:08.941Z,12.4
2018-03-16T08:06:59.306Z,12.4
2018-03-16T08:07:49.318Z,12.4
2018-03-16T08:08:39.117Z,12.4
2018-03-16T08:09:29.480Z,12.4
2018-03-16T08:10:19.500Z,12.3
2018-03-16T08:11:09.553Z,12.3
2018-03-16T08:11:59.638Z,12.3
2018-03-16T08:12:49.396Z,12.3
2018-03-16T08:13:39.769Z,12.3
2018-03-16T08:14:29.793Z,12.2
2018-03-16T08:15:20.353Z,12.2
2018-03-16T08:16:09.915Z,12.2
2018-03-16T08:16:59.974Z,12.1
2018-03-16T08:17:50.057Z,12.1
2018-03-16T08:18:40.108Z,12.1
2018-03-16T08:19:29.876Z,12.1
2018-03-16T08:20:19.943Z,12.1
2018-03-16T08:21:10.003Z,12
2018-03-16T08:22:00.058Z,12
2018-03-16T08:22:50.376Z,11.9
2018-03-16T08:23:40.453Z,11.9
2018-03-16T08:24:30.546Z,11.9
2018-03-16T08:25:20.570Z,11.9
2018-03-16T08:26:10.618Z,11.9
2018-03-16T08:27:00.398Z,11.8
2018-03-16T08:27:50.741Z,11.8
2018-03-16T08:28:40.810Z,11.8
2018-03-16T08:29:30.878Z,11.8
2018-03-16T08:30:20.920Z,11.8
2018-03-16T08:31:10.983Z,11.7
2018-03-16T08:32:00.756Z,11.7
2018-03-16T08:32:51.097Z,11.7
2018-03-16T08:33:40.873Z,11.6
2018-03-16T08:34:31.227Z,11.6
2018-03-16T08:35:21.006Z,11.6
2018-03-16T08:36:11.045Z,11.5
2018-03-16T08:37:01.403Z,11.4
2018-03-16T08:37:51.265Z,11.3
2018-03-16T08:38:41.539Z,11.3
2018-03-16T08:39:31.310Z,11.2
2018-03-16T08:40:21.642Z,11.1
2018-03-16T08:41:11.407Z,11.1
2018-03-16T08:42:01.477Z,11.1
2018-03-16T08:42:50.962Z,11
2018-03-16T08:43:41.023Z,11
2018-03-16T08:44:31.382Z,10.9
2018-03-16T08:45:22.012Z,10.9
2018-03-16T08:46:12.184Z,10.9
2018-03-16T08:47:01.547Z,10.9
2018-03-16T08:47:51.595Z,10.9
2018-03-16T08:48:41.465Z,10.8
2018-03-16T08:49:32.298Z,10.8
2018-03-16T08:50:21.882Z,10.8
2018-03-16T08:51:11.764Z,10.8
2018-03-16T08:52:01.907Z,10.8
2018-03-16T08:52:52.545Z,10.8
2018-03-16T08:53:42.614Z,10.7
2018-03-16T08:54:32.414Z,10.7
2018-03-16T08:55:22.129Z,10.7
2018-03-16T08:56:12.772Z,10.6
2018-03-16T08:57:02.844Z,10.6
2018-03-16T08:57:52.029Z,10.6
2018-03-16T08:58:42.488Z,10.6
2018-03-16T08:59:32.540Z,10.6
2018-03-16T09:00:23.074Z,10.6
2018-03-16T09:01:12.862Z,10.5
2018-03-16T09:02:02.804Z,10.5
2018-03-16T09:02:52.544Z,10.5
2018-03-16T09:03:43.119Z,10.5
2018-03-16T09:04:32.791Z,10.5
2018-03-16T09:05:22.859Z,10.4
2018-03-16T09:06:13.221Z,10.4
2018-03-16T09:07:03.161Z,10.4
2018-03-16T09:07:52.743Z,10.4
2018-03-16T09:08:43.398Z,10.4
2018-03-16T09:09:33.435Z,10.4
2018-03-16T09:10:23.488Z,10.5
2018-03-16T09:11:13.273Z,10.5
2018-03-16T09:12:03.320Z,10.5
2018-03-16T09:12:53.671Z,10.4
2018-03-16T09:13:43.430Z,10.5
2018-03-16T09:14:33.692Z,10.5
2018-03-16T09:15:23.602Z,10.6
2018-03-16T09:16:13.916Z,10.6
2018-03-16T09:17:03.972Z,10.6
2018-03-16T09:17:54.330Z,10.7
2018-03-16T09:18:44.090Z,10.8
2018-03-16T09:19:33.870Z,10.9
2018-03-16T09:20:24.220Z,10.9
2018-03-16T09:21:14.260Z,11.1
2018-03-16T09:22:04.327Z,11.2
2018-03-16T09:22:54.395Z,11.3
2018-03-16T09:23:44.746Z,11.4
2018-03-16T09:24:34.012Z,11.6
2018-03-16T09:25:24.080Z,11.7
2018-03-16T09:26:14.530Z,11.8
2018-03-16T09:27:04.982Z,11.9
2018-03-16T09:27:54.728Z,12
2018-03-16T09:28:44.819Z,12.2
2018-03-16T09:29:34.569Z,12.3
2018-03-16T09:30:24.942Z,12.4
2018-03-16T09:31:14.990Z,12.6
2018-03-16T09:32:05.045Z,12.8
2018-03-16T09:32:55.096Z,12.9
2018-03-16T09:33:45.160Z,13.1
2018-03-16T09:34:35.099Z,13.2
2018-03-16T09:35:25.441Z,13.4
2018-03-16T09:36:15.092Z,13.5
2018-03-16T09:37:05.490Z,13.7
2018-03-16T09:37:55.054Z,13.9
2018-03-16T09:38:45.512Z,14
2018-03-16T09:39:35.384Z,14.2
2018-03-16T09:40:25.429Z,14.3
2018-03-16T09:41:15.695Z,14.5
2018-03-16T09:42:05.246Z,14.6
2018-03-16T09:42:55.117Z,14.8
2018-03-16T09:43:45.861Z,15
2018-03-16T09:44:35.938Z,15.1
2018-03-16T09:45:26.001Z,15.3
2018-03-16T09:46:15.753Z,15.5
2018-03-16T09:47:05.516Z,15.6
2018-03-16T09:47:55.971Z,15.8
2018-03-16T09:48:46.225Z,15.9
2018-03-16T09:49:36.011Z,16.1
2018-03-16T09:50:25.830Z,16.3
2018-03-16T09:51:15.912Z,16.4
2018-03-16T09:52:05.661Z,16.6
2018-03-16T09:52:56.228Z,16.8
2018-03-16T09:53:46.386Z,16.9
2018-03-16T09:55:26.705Z,17.2
2018-03-16T09:56:16.677Z,17.3
2018-03-16T09:57:06.815Z,17.4
2018-03-16T09:57:56.573Z,17.6
2018-03-16T09:58:46.348Z,17.8
2018-03-16T09:59:36.703Z,17.9
2018-03-16T10:00:26.857Z,18.1
2018-03-16T10:01:16.510Z,18.1
2018-03-16T10:02:07.253Z,18.2
2018-03-16T10:02:56.940Z,18.3
2018-03-16T10:03:46.974Z,18.4
2018-03-16T10:04:37.346Z,18.4
2018-03-16T10:05:26.826Z,18.5
2018-03-16T10:06:17.259Z,18.5
2018-03-16T10:07:07.242Z,18.6
2018-03-16T10:07:57.585Z,18.6
2018-03-16T10:08:47.353Z,18.6
2018-03-16T10:09:37.008Z,18.6
2018-03-16T10:12:57.947Z,18.8
2018-03-16T10:15:28.391Z,18.6
2018-03-16T10:16:18.433Z,18.6
2018-03-16T10:17:08.228Z,18.6
2018-03-16T10:17:58.569Z,18.6
2018-03-16T10:18:47.844Z,18.6
2018-03-16T10:19:38.424Z,18.6
2018-03-16T10:20:28.744Z,18.6
2018-03-16T10:21:18.234Z,18.6
2018-03-16T10:22:08.397Z,18.6
2018-03-16T10:22:58.632Z,18.6
2018-03-16T10:23:48.550Z,18.6
2018-03-16T10:24:38.276Z,18.6
2018-03-16T10:27:59.011Z,18.8
2018-03-16T10:28:49.141Z,18.8
2018-03-16T10:29:39.413Z,18.8
2018-03-16T10:30:28.734Z,18.9
2018-03-16T10:31:19.233Z,18.9
2018-03-16T10:32:09.583Z,18.9
2018-03-16T10:32:59.069Z,19.1
2018-03-16T10:33:49.123Z,19.2
2018-03-16T10:34:39.186Z,19.3
2018-03-16T10:35:29.046Z,19.5
2018-03-16T10:36:19.896Z,19.7
2018-03-16T10:37:09.724Z,19.9
2018-03-16T10:37:59.988Z,20.2
2018-03-16T10:38:49.481Z,20.5
2018-03-16T10:39:39.220Z,20.9
2018-03-16T10:40:29.893Z,21.3
2018-03-16T10:41:19.665Z,21.6
2018-03-16T10:42:09.993Z,22
2018-03-16T10:42:59.778Z,22.3
2018-03-16T10:43:50.122Z,22.6
2018-03-16T10:44:39.979Z,22.9
2018-03-16T10:45:30.129Z,23.2
2018-03-16T10:46:20.274Z,23.4
2018-03-16T10:47:10.360Z,23.6
2018-03-16T10:48:00.721Z,23.8
2018-03-16T10:48:49.845Z,23.9
2018-03-16T10:49:40.841Z,24.1
2018-03-16T10:50:30.597Z,24.1
2018-03-16T10:51:20.665Z,24.3
2018-03-16T10:52:10.420Z,24.3
2018-03-16T10:53:00.497Z,24.4
2018-03-16T10:53:50.834Z,24.4
2018-03-16T10:54:40.887Z,24.4
2018-03-16T10:55:30.951Z,24.4
2018-03-16T10:56:21.007Z,24.3
2018-03-16T10:57:11.069Z,24.3
2018-03-16T10:58:01.139Z,24.4
2018-03-16T10:58:50.966Z,24.4
2018-03-16T10:59:41.553Z,24.4
2018-03-16T11:00:31.016Z,24.3
2018-03-16T11:01:21.360Z,24.3
2018-03-16T11:02:11.425Z,24.2
2018-03-16T11:03:01.083Z,24.2
2018-03-16T11:03:51.567Z,24.1
2018-03-16T11:04:41.325Z,24.2
2018-03-16T11:05:31.464Z,24.2
2018-03-16T11:06:21.824Z,24.2
2018-03-16T11:07:11.282Z,24.2
2018-03-16T11:08:01.442Z,24.1
2018-03-16T11:08:52.201Z,24.1
2018-03-16T11:09:41.664Z,24.1
2018-03-16T11:10:31.807Z,24
2018-03-16T11:11:21.583Z,24
2018-03-16T11:12:12.132Z,23.9
2018-03-16T11:13:01.994Z,23.9
2018-03-16T11:13:52.262Z,23.9
2018-03-16T11:14:42.620Z,23.9
2018-03-16T11:15:32.074Z,23.8
2018-03-16T11:16:22.436Z,23.8
2018-03-16T11:17:12.249Z,23.8
2018-03-16T11:18:02.566Z,23.8
2018-03-16T11:18:52.206Z,23.8
2018-03-16T11:19:42.465Z,23.8
2018-03-16T11:20:32.436Z,23.9
2018-03-16T11:21:22.491Z,24
2018-03-16T11:22:12.841Z,24.1
2018-03-16T11:23:02.492Z,24.3
2018-03-16T11:23:53.228Z,24.4
2018-03-16T11:24:42.523Z,24.5
2018-03-16T11:25:32.888Z,24.6
2018-03-16T11:26:23.406Z,24.7
2018-03-16T11:27:12.698Z,24.8
2018-03-16T22:03:29.374Z,8.8
2018-03-16T22:04:19.320Z,8.8
2018-03-16T22:05:09.380Z,8.8